sensor_id;sensor_type;location;lat;lon;timestamp;temperature;humidity
76099;DHT22;64828;49.956;8.636;2024-03-17T00:00:08;5.80;87.20
76099;DHT22;64828;49.956;8.636;2024-03-17T00:00:29;5.80;87.20
76099;DHT22;64828;49.956;8.636;2024-03-17T00:00:45;5.80;87.30
76099;DHT22;64828;49.956;8.636;2024-03-17T00:01:04;5.80;87.40
76099;DHT22;64828;49.956;8.636;2024-03-17T00:01:20;5.80;87.60
76099;DHT22;64828;49.956;8.636;2024-03-17T00:01:36;5.80;87.60
76099;DHT22;64828;49.956;8.636;2024-03-17T00:01:52;5.80;87.70
76099;DHT22;64828;49.956;8.636;2024-03-17T00:02:08;5.80;87.70
76099;DHT22;64828;49.956;8.636;2024-03-17T00:02:23;5.80;87.70
76099;DHT22;64828;49.956;8.636;2024-03-17T00:02:39;5.80;87.70
76099;DHT22;64828;49.956;8.636;2024-03-17T00:02:55;5.80;87.80
76099;DHT22;64828;49.956;8.636;2024-03-17T00:03:11;5.80;87.80
76099;DHT22;64828;49.956;8.636;2024-03-17T00:03:27;5.80;87.80
76099;DHT22;64828;49.956;8.636;2024-03-17T00:03:43;5.80;87.80
76099;DHT22;64828;49.956;8.636;2024-03-17T00:03:59;5.80;87.80
76099;DHT22;64828;49.956;8.636;2024-03-17T00:04:15;5.80;87.80
76099;DHT22;64828;49.956;8.636;2024-03-17T00:04:30;5.80;87.80
76099;DHT22;64828;49.956;8.636;2024-03-17T00:04:47;5.80;87.80
76099;DHT22;64828;49.956;8.636;2024-03-17T00:05:03;5.80;87.80
76099;DHT22;64828;49.956;8.636;2024-03-17T00:05:19;5.80;87.80
76099;DHT22;64828;49.956;8.636;2024-03-17T00:05:36;5.80;87.80
76099;DHT22;64828;49.956;8.636;2024-03-17T00:06:00;5.80;87.90
76099;DHT22;64828;49.956;8.636;2024-03-17T00:06:16;5.80;88.00
76099;DHT22;64828;49.956;8.636;2024-03-17T00:06:32;5.80;88.10
76099;DHT22;64828;49.956;8.636;2024-03-17T00:06:48;5.80;88.10
76099;DHT22;64828;49.956;8.636;2024-03-17T00:07:04;5.80;88.10
76099;DHT22;64828;49.956;8.636;2024-03-17T00:07:19;5.80;88.10
76099;DHT22;64828;49.956;8.636;2024-03-17T00:07:35;5.80;88.10
76099;DHT22;64828;49.956;8.636;2024-03-17T00:07:51;5.80;88.10
76099;DHT22;64828;49.956;8.636;2024-03-17T00:08:06;5.80;88.20
76099;DHT22;64828;49.956;8.636;2024-03-17T00:08:23;5.80;88.20
76099;DHT22;64828;49.956;8.636;2024-03-17T00:08:39;5.80;88.10
76099;DHT22;64828;49.956;8.636;2024-03-17T00:08:55;5.80;88.10
76099;DHT22;64828;49.956;8.636;2024-03-17T00:09:11;5.80;88.20
76099;DHT22;64828;49.956;8.636;2024-03-17T00:09:26;5.80;88.20
76099;DHT22;64828;49.956;8.636;2024-03-17T00:09:42;5.80;88.20
76099;DHT22;64828;49.956;8.636;2024-03-17T00:09:58;5.80;88.30
76099;DHT22;64828;49.956;8.636;2024-03-17T00:10:14;5.80;88.30
76099;DHT22;64828;49.956;8.636;2024-03-17T00:10:31;5.80;88.30
76099;DHT22;64828;49.956;8.636;2024-03-17T00:10:50;5.80;88.40
76099;DHT22;64828;49.956;8.636;2024-03-17T00:11:06;5.80;88.40
76099;DHT22;64828;49.956;8.636;2024-03-17T00:11:22;5.80;88.40
76099;DHT22;64828;49.956;8.636;2024-03-17T00:11:38;5.80;88.40
76099;DHT22;64828;49.956;8.636;2024-03-17T00:11:53;5.80;88.40
76099;DHT22;64828;49.956;8.636;2024-03-17T00:12:10;5.80;88.40
76099;DHT22;64828;49.956;8.636;2024-03-17T00:12:26;5.80;88.40
76099;DHT22;64828;49.956;8.636;2024-03-17T00:12:42;5.80;88.40
76099;DHT22;64828;49.956;8.636;2024-03-17T00:12:58;5.80;88.30
76099;DHT22;64828;49.956;8.636;2024-03-17T00:13:14;5.80;88.30
76099;DHT22;64828;49.956;8.636;2024-03-17T00:13:29;5.80;88.20
76099;DHT22;64828;49.956;8.636;2024-03-17T00:13:45;5.80;88.10
76099;DHT22;64828;49.956;8.636;2024-03-17T00:14:02;5.80;88.00
76099;DHT22;64828;49.956;8.636;2024-03-17T00:14:18;5.80;88.00
76099;DHT22;64828;49.956;8.636;2024-03-17T00:14:34;5.80;87.90
76099;DHT22;64828;49.956;8.636;2024-03-17T00:14:50;5.80;87.90
76099;DHT22;64828;49.956;8.636;2024-03-17T00:15:06;5.80;87.80
76099;DHT22;64828;49.956;8.636;2024-03-17T00:15:23;5.80;87.80
76099;DHT22;64828;49.956;8.636;2024-03-17T00:15:38;5.80;87.80
76099;DHT22;64828;49.956;8.636;2024-03-17T00:15:54;5.80;87.90
76099;DHT22;64828;49.956;8.636;2024-03-17T00:16:10;5.80;87.90
76099;DHT22;64828;49.956;8.636;2024-03-17T00:16:25;5.80;88.00
76099;DHT22;64828;49.956;8.636;2024-03-17T00:16:41;5.80;88.20
76099;DHT22;64828;49.956;8.636;2024-03-17T00:16:57;5.80;88.30
76099;DHT22;64828;49.956;8.636;2024-03-17T00:17:13;5.70;88.60
76099;DHT22;64828;49.956;8.636;2024-03-17T00:17:30;5.70;89.10
76099;DHT22;64828;49.956;8.636;2024-03-17T00:17:46;5.70;89.20
76099;DHT22;64828;49.956;8.636;2024-03-17T00:18:02;5.70;89.40
76099;DHT22;64828;49.956;8.636;2024-03-17T00:18:17;5.70;89.40
76099;DHT22;64828;49.956;8.636;2024-03-17T00:18:33;5.70;89.50
76099;DHT22;64828;49.956;8.636;2024-03-17T00:18:49;5.70;89.50
76099;DHT22;64828;49.956;8.636;2024-03-17T00:19:05;5.70;89.50
76099;DHT22;64828;49.956;8.636;2024-03-17T00:19:21;5.70;89.50
76099;DHT22;64828;49.956;8.636;2024-03-17T00:19:38;5.70;89.50
76099;DHT22;64828;49.956;8.636;2024-03-17T00:19:54;5.70;89.50
76099;DHT22;64828;49.956;8.636;2024-03-17T00:20:10;5.70;89.50
76099;DHT22;64828;49.956;8.636;2024-03-17T00:20:34;5.70;89.50
76099;DHT22;64828;49.956;8.636;2024-03-17T00:20:49;5.60;89.40
76099;DHT22;64828;49.956;8.636;2024-03-17T00:21:05;5.70;89.40
76099;DHT22;64828;49.956;8.636;2024-03-17T00:21:21;5.70;89.40
76099;DHT22;64828;49.956;8.636;2024-03-17T00:21:37;5.60;89.40
76099;DHT22;64828;49.956;8.636;2024-03-17T00:21:53;5.60;89.40
76099;DHT22;64828;49.956;8.636;2024-03-17T00:22:08;5.60;89.50
76099;DHT22;64828;49.956;8.636;2024-03-17T00:22:28;5.60;89.50
76099;DHT22;64828;49.956;8.636;2024-03-17T00:22:49;5.60;89.50
76099;DHT22;64828;49.956;8.636;2024-03-17T00:23:06;5.60;89.60
76099;DHT22;64828;49.956;8.636;2024-03-17T00:23:23;5.60;89.60
76099;DHT22;64828;49.956;8.636;2024-03-17T00:23:39;5.60;89.60
76099;DHT22;64828;49.956;8.636;2024-03-17T00:23:54;5.60;89.70
76099;DHT22;64828;49.956;8.636;2024-03-17T00:24:10;5.50;89.70
76099;DHT22;64828;49.956;8.636;2024-03-17T00:24:26;5.60;89.70
76099;DHT22;64828;49.956;8.636;2024-03-17T00:24:43;5.50;89.70
76099;DHT22;64828;49.956;8.636;2024-03-17T00:25:00;5.50;89.70
76099;DHT22;64828;49.956;8.636;2024-03-17T00:25:16;5.50;89.80
76099;DHT22;64828;49.956;8.636;2024-03-17T00:25:33;5.50;89.80
76099;DHT22;64828;49.956;8.636;2024-03-17T00:25:49;5.50;89.80
76099;DHT22;64828;49.956;8.636;2024-03-17T00:26:06;5.50;89.80
76099;DHT22;64828;49.956;8.636;2024-03-17T00:26:22;5.50;89.90
76099;DHT22;64828;49.956;8.636;2024-03-17T00:26:37;5.50;89.90
76099;DHT22;64828;49.956;8.636;2024-03-17T00:26:53;5.50;89.90
76099;DHT22;64828;49.956;8.636;2024-03-17T00:27:10;5.50;89.90
76099;DHT22;64828;49.956;8.636;2024-03-17T00:27:26;5.50;89.90
76099;DHT22;64828;49.956;8.636;2024-03-17T00:27:42;5.40;89.90
76099;DHT22;64828;49.956;8.636;2024-03-17T00:28:00;5.40;89.80
76099;DHT22;64828;49.956;8.636;2024-03-17T00:28:19;5.40;89.80
76099;DHT22;64828;49.956;8.636;2024-03-17T00:28:36;5.40;89.80
76099;DHT22;64828;49.956;8.636;2024-03-17T00:28:51;5.40;89.80
76099;DHT22;64828;49.956;8.636;2024-03-17T00:29:07;5.40;89.80
76099;DHT22;64828;49.956;8.636;2024-03-17T00:29:24;5.40;89.90
76099;DHT22;64828;49.956;8.636;2024-03-17T00:29:39;5.40;89.90
76099;DHT22;64828;49.956;8.636;2024-03-17T00:29:55;5.40;89.90
76099;DHT22;64828;49.956;8.636;2024-03-17T00:30:11;5.40;89.90
76099;DHT22;64828;49.956;8.636;2024-03-17T00:30:28;5.30;89.90
76099;DHT22;64828;49.956;8.636;2024-03-17T00:30:44;5.30;89.90
76099;DHT22;64828;49.956;8.636;2024-03-17T00:30:59;5.30;89.90
76099;DHT22;64828;49.956;8.636;2024-03-17T00:31:18;5.30;89.90
76099;DHT22;64828;49.956;8.636;2024-03-17T00:31:33;5.30;89.90
76099;DHT22;64828;49.956;8.636;2024-03-17T00:31:49;5.30;89.90
76099;DHT22;64828;49.956;8.636;2024-03-17T00:32:05;5.30;89.90
76099;DHT22;64828;49.956;8.636;2024-03-17T00:32:21;5.20;89.90
76099;DHT22;64828;49.956;8.636;2024-03-17T00:32:39;5.30;89.90
76099;DHT22;64828;49.956;8.636;2024-03-17T00:32:55;5.20;89.90
76099;DHT22;64828;49.956;8.636;2024-03-17T00:33:11;5.20;89.90
76099;DHT22;64828;49.956;8.636;2024-03-17T00:33:27;5.20;89.90
76099;DHT22;64828;49.956;8.636;2024-03-17T00:33:44;5.20;90.00
76099;DHT22;64828;49.956;8.636;2024-03-17T00:33:59;5.20;90.00
76099;DHT22;64828;49.956;8.636;2024-03-17T00:34:15;5.20;90.00
76099;DHT22;64828;49.956;8.636;2024-03-17T00:34:31;5.20;90.00
76099;DHT22;64828;49.956;8.636;2024-03-17T00:34:47;5.20;90.00
76099;DHT22;64828;49.956;8.636;2024-03-17T00:35:03;5.20;90.00
76099;DHT22;64828;49.956;8.636;2024-03-17T00:35:20;5.20;90.00
76099;DHT22;64828;49.956;8.636;2024-03-17T00:35:38;5.20;90.00
76099;DHT22;64828;49.956;8.636;2024-03-17T00:35:54;5.10;90.00
76099;DHT22;64828;49.956;8.636;2024-03-17T00:36:09;5.10;90.10
76099;DHT22;64828;49.956;8.636;2024-03-17T00:36:25;5.10;90.10
76099;DHT22;64828;49.956;8.636;2024-03-17T00:36:41;5.10;90.10
76099;DHT22;64828;49.956;8.636;2024-03-17T00:36:56;5.10;90.10
76099;DHT22;64828;49.956;8.636;2024-03-17T00:37:12;5.10;90.10
76099;DHT22;64828;49.956;8.636;2024-03-17T00:37:28;5.10;90.10
76099;DHT22;64828;49.956;8.636;2024-03-17T00:37:43;5.10;90.10
76099;DHT22;64828;49.956;8.636;2024-03-17T00:37:59;5.10;90.10
76099;DHT22;64828;49.956;8.636;2024-03-17T00:38:16;5.10;90.20
76099;DHT22;64828;49.956;8.636;2024-03-17T00:38:32;5.00;90.20
76099;DHT22;64828;49.956;8.636;2024-03-17T00:38:48;5.00;90.30
76099;DHT22;64828;49.956;8.636;2024-03-17T00:39:04;5.00;90.30
76099;DHT22;64828;49.956;8.636;2024-03-17T00:39:20;5.00;90.30
76099;DHT22;64828;49.956;8.636;2024-03-17T00:39:35;5.00;90.30
76099;DHT22;64828;49.956;8.636;2024-03-17T00:39:51;5.00;90.30
76099;DHT22;64828;49.956;8.636;2024-03-17T00:40:07;5.00;90.40
76099;DHT22;64828;49.956;8.636;2024-03-17T00:40:23;5.00;90.40
76099;DHT22;64828;49.956;8.636;2024-03-17T00:40:39;5.00;90.40
76099;DHT22;64828;49.956;8.636;2024-03-17T00:41:02;5.00;90.40
76099;DHT22;64828;49.956;8.636;2024-03-17T00:41:19;5.00;90.40
76099;DHT22;64828;49.956;8.636;2024-03-17T00:41:35;5.00;90.40
76099;DHT22;64828;49.956;8.636;2024-03-17T00:41:50;5.00;90.40
76099;DHT22;64828;49.956;8.636;2024-03-17T00:42:06;5.00;90.30
76099;DHT22;64828;49.956;8.636;2024-03-17T00:42:22;5.00;90.30
76099;DHT22;64828;49.956;8.636;2024-03-17T00:42:37;5.00;90.30
76099;DHT22;64828;49.956;8.636;2024-03-17T00:42:53;4.90;90.30
76099;DHT22;64828;49.956;8.636;2024-03-17T00:43:09;5.00;90.20
76099;DHT22;64828;49.956;8.636;2024-03-17T00:43:26;4.90;90.30
76099;DHT22;64828;49.956;8.636;2024-03-17T00:43:42;5.00;90.30
76099;DHT22;64828;49.956;8.636;2024-03-17T00:43:58;4.90;90.30
76099;DHT22;64828;49.956;8.636;2024-03-17T00:44:16;5.00;90.30
76099;DHT22;64828;49.956;8.636;2024-03-17T00:44:31;4.90;90.30
76099;DHT22;64828;49.956;8.636;2024-03-17T00:44:47;4.90;90.30
76099;DHT22;64828;49.956;8.636;2024-03-17T00:45:03;4.90;90.30
76099;DHT22;64828;49.956;8.636;2024-03-17T00:45:21;4.90;90.30
76099;DHT22;64828;49.956;8.636;2024-03-17T00:45:37;4.90;90.30
76099;DHT22;64828;49.956;8.636;2024-03-17T00:45:53;4.90;90.30
76099;DHT22;64828;49.956;8.636;2024-03-17T00:46:08;4.90;90.30
76099;DHT22;64828;49.956;8.636;2024-03-17T00:46:24;4.90;90.40
76099;DHT22;64828;49.956;8.636;2024-03-17T00:46:40;4.90;90.40
76099;DHT22;64828;49.956;8.636;2024-03-17T00:46:57;4.90;90.40
76099;DHT22;64828;49.956;8.636;2024-03-17T00:47:13;4.80;90.40
76099;DHT22;64828;49.956;8.636;2024-03-17T00:47:28;4.80;90.40
76099;DHT22;64828;49.956;8.636;2024-03-17T00:47:44;4.80;90.40
76099;DHT22;64828;49.956;8.636;2024-03-17T00:48:00;4.80;90.30
76099;DHT22;64828;49.956;8.636;2024-03-17T00:48:16;4.80;90.30
76099;DHT22;64828;49.956;8.636;2024-03-17T00:48:32;4.80;90.30
76099;DHT22;64828;49.956;8.636;2024-03-17T00:48:50;4.80;90.30
76099;DHT22;64828;49.956;8.636;2024-03-17T00:49:06;4.80;90.30
76099;DHT22;64828;49.956;8.636;2024-03-17T00:49:22;4.80;90.20
76099;DHT22;64828;49.956;8.636;2024-03-17T00:49:37;4.80;90.10
76099;DHT22;64828;49.956;8.636;2024-03-17T00:49:53;4.80;90.10
76099;DHT22;64828;49.956;8.636;2024-03-17T00:50:09;4.80;90.10
76099;DHT22;64828;49.956;8.636;2024-03-17T00:50:26;4.80;90.10
76099;DHT22;64828;49.956;8.636;2024-03-17T00:50:42;4.80;90.00
76099;DHT22;64828;49.956;8.636;2024-03-17T00:51:00;4.80;90.00
76099;DHT22;64828;49.956;8.636;2024-03-17T00:51:16;4.80;90.00
76099;DHT22;64828;49.956;8.636;2024-03-17T00:51:32;4.70;89.90
76099;DHT22;64828;49.956;8.636;2024-03-17T00:51:47;4.70;89.90
76099;DHT22;64828;49.956;8.636;2024-03-17T00:52:05;4.70;89.90
76099;DHT22;64828;49.956;8.636;2024-03-17T00:52:21;4.70;89.90
76099;DHT22;64828;49.956;8.636;2024-03-17T00:52:37;4.70;89.90
76099;DHT22;64828;49.956;8.636;2024-03-17T00:52:52;4.70;89.90
76099;DHT22;64828;49.956;8.636;2024-03-17T00:53:08;4.70;89.90
76099;DHT22;64828;49.956;8.636;2024-03-17T00:53:28;4.70;89.90
76099;DHT22;64828;49.956;8.636;2024-03-17T00:53:44;4.70;89.80
76099;DHT22;64828;49.956;8.636;2024-03-17T00:54:00;4.70;89.80
76099;DHT22;64828;49.956;8.636;2024-03-17T00:54:15;4.70;89.80
76099;DHT22;64828;49.956;8.636;2024-03-17T00:54:33;4.70;89.90
76099;DHT22;64828;49.956;8.636;2024-03-17T00:54:49;4.70;89.90
76099;DHT22;64828;49.956;8.636;2024-03-17T00:55:05;4.70;89.80
76099;DHT22;64828;49.956;8.636;2024-03-17T00:55:21;4.70;89.90
76099;DHT22;64828;49.956;8.636;2024-03-17T00:55:37;4.60;89.90
76099;DHT22;64828;49.956;8.636;2024-03-17T00:55:56;4.60;89.90
76099;DHT22;64828;49.956;8.636;2024-03-17T00:56:13;4.60;89.90
76099;DHT22;64828;49.956;8.636;2024-03-17T00:56:29;4.60;89.90
76099;DHT22;64828;49.956;8.636;2024-03-17T00:56:46;4.60;89.90
76099;DHT22;64828;49.956;8.636;2024-03-17T00:57:01;4.60;89.80
76099;DHT22;64828;49.956;8.636;2024-03-17T00:57:17;4.60;89.80
76099;DHT22;64828;49.956;8.636;2024-03-17T00:57:33;4.60;89.90
76099;DHT22;64828;49.956;8.636;2024-03-17T00:57:49;4.50;89.90
76099;DHT22;64828;49.956;8.636;2024-03-17T00:58:04;4.50;89.90
76099;DHT22;64828;49.956;8.636;2024-03-17T00:58:23;4.60;89.90
76099;DHT22;64828;49.956;8.636;2024-03-17T00:58:39;4.50;90.00
76099;DHT22;64828;49.956;8.636;2024-03-17T00:58:54;4.60;90.00
76099;DHT22;64828;49.956;8.636;2024-03-17T00:59:10;4.50;90.10
76099;DHT22;64828;49.956;8.636;2024-03-17T00:59:27;4.50;90.20
76099;DHT22;64828;49.956;8.636;2024-03-17T00:59:43;4.50;90.20
76099;DHT22;64828;49.956;8.636;2024-03-17T00:59:59;4.50;90.20
76099;DHT22;64828;49.956;8.636;2024-03-17T01:00:15;4.50;90.10
76099;DHT22;64828;49.956;8.636;2024-03-17T01:00:31;4.50;90.10
76099;DHT22;64828;49.956;8.636;2024-03-17T01:00:48;4.50;90.10
76099;DHT22;64828;49.956;8.636;2024-03-17T01:01:04;4.50;90.10
76099;DHT22;64828;49.956;8.636;2024-03-17T01:01:20;4.50;90.20
76099;DHT22;64828;49.956;8.636;2024-03-17T01:01:36;4.50;90.20
76099;DHT22;64828;49.956;8.636;2024-03-17T01:01:51;4.50;90.20
76099;DHT22;64828;49.956;8.636;2024-03-17T01:02:07;4.50;90.10
76099;DHT22;64828;49.956;8.636;2024-03-17T01:02:22;4.40;90.10
76099;DHT22;64828;49.956;8.636;2024-03-17T01:02:38;4.50;90.10
76099;DHT22;64828;49.956;8.636;2024-03-17T01:02:55;4.40;90.10
76099;DHT22;64828;49.956;8.636;2024-03-17T01:03:11;4.40;90.00
76099;DHT22;64828;49.956;8.636;2024-03-17T01:03:27;4.40;90.00
76099;DHT22;64828;49.956;8.636;2024-03-17T01:03:46;4.40;90.00
76099;DHT22;64828;49.956;8.636;2024-03-17T01:04:01;4.40;90.10
76099;DHT22;64828;49.956;8.636;2024-03-17T01:04:17;4.40;90.10
76099;DHT22;64828;49.956;8.636;2024-03-17T01:04:33;4.40;90.10
76099;DHT22;64828;49.956;8.636;2024-03-17T01:04:49;4.40;90.10
76099;DHT22;64828;49.956;8.636;2024-03-17T01:05:05;4.40;90.10
76099;DHT22;64828;49.956;8.636;2024-03-17T01:05:20;4.40;90.20
76099;DHT22;64828;49.956;8.636;2024-03-17T01:05:38;4.40;90.20
76099;DHT22;64828;49.956;8.636;2024-03-17T01:05:57;4.40;90.20
76099;DHT22;64828;49.956;8.636;2024-03-17T01:06:13;4.40;90.30
76099;DHT22;64828;49.956;8.636;2024-03-17T01:06:29;4.40;90.30
76099;DHT22;64828;49.956;8.636;2024-03-17T01:06:44;4.40;90.30
76099;DHT22;64828;49.956;8.636;2024-03-17T01:07:01;4.40;90.30
76099;DHT22;64828;49.956;8.636;2024-03-17T01:07:16;4.40;90.30
76099;DHT22;64828;49.956;8.636;2024-03-17T01:07:33;4.40;90.30
76099;DHT22;64828;49.956;8.636;2024-03-17T01:07:49;4.40;90.30
76099;DHT22;64828;49.956;8.636;2024-03-17T01:08:05;4.30;90.20
76099;DHT22;64828;49.956;8.636;2024-03-17T01:08:21;4.40;90.20
76099;DHT22;64828;49.956;8.636;2024-03-17T01:08:37;4.30;90.20
76099;DHT22;64828;49.956;8.636;2024-03-17T01:08:52;4.30;90.10
76099;DHT22;64828;49.956;8.636;2024-03-17T01:09:08;4.30;90.10
76099;DHT22;64828;49.956;8.636;2024-03-17T01:09:24;4.30;90.10
76099;DHT22;64828;49.956;8.636;2024-03-17T01:09:40;4.30;90.10
76099;DHT22;64828;49.956;8.636;2024-03-17T01:09:55;4.30;90.10
76099;DHT22;64828;49.956;8.636;2024-03-17T01:10:12;4.30;90.10
76099;DHT22;64828;49.956;8.636;2024-03-17T01:10:27;4.30;90.10
76099;DHT22;64828;49.956;8.636;2024-03-17T01:10:44;4.30;90.10
76099;DHT22;64828;49.956;8.636;2024-03-17T01:11:00;4.30;90.10
76099;DHT22;64828;49.956;8.636;2024-03-17T01:11:18;4.20;90.10
76099;DHT22;64828;49.956;8.636;2024-03-17T01:11:34;4.20;90.10
76099;DHT22;64828;49.956;8.636;2024-03-17T01:11:50;4.20;90.10
76099;DHT22;64828;49.956;8.636;2024-03-17T01:12:06;4.20;90.10
76099;DHT22;64828;49.956;8.636;2024-03-17T01:12:21;4.20;90.10
76099;DHT22;64828;49.956;8.636;2024-03-17T01:12:37;4.20;90.10
76099;DHT22;64828;49.956;8.636;2024-03-17T01:12:53;4.20;90.10
76099;DHT22;64828;49.956;8.636;2024-03-17T01:13:09;4.20;90.10
76099;DHT22;64828;49.956;8.636;2024-03-17T01:13:28;4.20;90.10
76099;DHT22;64828;49.956;8.636;2024-03-17T01:13:44;4.20;90.10
76099;DHT22;64828;49.956;8.636;2024-03-17T01:14:00;4.10;90.20
76099;DHT22;64828;49.956;8.636;2024-03-17T01:14:15;4.20;90.20
76099;DHT22;64828;49.956;8.636;2024-03-17T01:14:32;4.20;90.20
76099;DHT22;64828;49.956;8.636;2024-03-17T01:14:48;4.20;90.30
76099;DHT22;64828;49.956;8.636;2024-03-17T01:15:08;4.20;90.30
76099;DHT22;64828;49.956;8.636;2024-03-17T01:15:24;4.10;90.30
76099;DHT22;64828;49.956;8.636;2024-03-17T01:15:40;4.10;90.30
76099;DHT22;64828;49.956;8.636;2024-03-17T01:15:55;4.10;90.40
76099;DHT22;64828;49.956;8.636;2024-03-17T01:16:12;4.10;90.40
76099;DHT22;64828;49.956;8.636;2024-03-17T01:16:28;4.10;90.40
76099;DHT22;64828;49.956;8.636;2024-03-17T01:16:44;4.10;90.40
76099;DHT22;64828;49.956;8.636;2024-03-17T01:17:01;4.10;90.40
76099;DHT22;64828;49.956;8.636;2024-03-17T01:17:20;4.10;90.40
76099;DHT22;64828;49.956;8.636;2024-03-17T01:17:35;4.10;90.30
76099;DHT22;64828;49.956;8.636;2024-03-17T01:17:51;4.10;90.30
76099;DHT22;64828;49.956;8.636;2024-03-17T01:18:07;4.10;90.30
76099;DHT22;64828;49.956;8.636;2024-03-17T01:18:23;4.10;90.30
76099;DHT22;64828;49.956;8.636;2024-03-17T01:18:39;4.10;90.40
76099;DHT22;64828;49.956;8.636;2024-03-17T01:18:55;4.10;90.50
76099;DHT22;64828;49.956;8.636;2024-03-17T01:19:10;4.00;90.50
76099;DHT22;64828;49.956;8.636;2024-03-17T01:19:26;4.00;90.50
76099;DHT22;64828;49.956;8.636;2024-03-17T01:19:42;4.00;90.50
76099;DHT22;64828;49.956;8.636;2024-03-17T01:19:58;4.00;90.50
76099;DHT22;64828;49.956;8.636;2024-03-17T01:20:14;4.00;90.50
76099;DHT22;64828;49.956;8.636;2024-03-17T01:20:30;4.00;90.50
76099;DHT22;64828;49.956;8.636;2024-03-17T01:20:46;4.00;90.60
76099;DHT22;64828;49.956;8.636;2024-03-17T01:21:03;4.00;90.50
76099;DHT22;64828;49.956;8.636;2024-03-17T01:21:20;4.00;90.50
76099;DHT22;64828;49.956;8.636;2024-03-17T01:21:36;4.00;90.50
76099;DHT22;64828;49.956;8.636;2024-03-17T01:21:52;3.90;90.50
76099;DHT22;64828;49.956;8.636;2024-03-17T01:22:08;4.00;90.50
76099;DHT22;64828;49.956;8.636;2024-03-17T01:22:24;4.00;90.60
76099;DHT22;64828;49.956;8.636;2024-03-17T01:22:40;4.00;90.70
76099;DHT22;64828;49.956;8.636;2024-03-17T01:22:57;4.00;90.70
76099;DHT22;64828;49.956;8.636;2024-03-17T01:23:12;4.00;90.70
76099;DHT22;64828;49.956;8.636;2024-03-17T01:23:29;4.00;90.70
76099;DHT22;64828;49.956;8.636;2024-03-17T01:23:44;3.90;90.70
76099;DHT22;64828;49.956;8.636;2024-03-17T01:24:00;3.90;90.70
76099;DHT22;64828;49.956;8.636;2024-03-17T01:24:17;4.00;90.80
76099;DHT22;64828;49.956;8.636;2024-03-17T01:24:33;4.00;90.80
76099;DHT22;64828;49.956;8.636;2024-03-17T01:24:49;3.90;90.90
76099;DHT22;64828;49.956;8.636;2024-03-17T01:25:05;3.90;90.80
76099;DHT22;64828;49.956;8.636;2024-03-17T01:25:22;3.90;90.80
76099;DHT22;64828;49.956;8.636;2024-03-17T01:25:38;3.90;90.70
76099;DHT22;64828;49.956;8.636;2024-03-17T01:25:53;3.90;90.70
76099;DHT22;64828;49.956;8.636;2024-03-17T01:26:10;3.90;90.70
76099;DHT22;64828;49.956;8.636;2024-03-17T01:26:26;3.90;90.70
76099;DHT22;64828;49.956;8.636;2024-03-17T01:26:42;3.90;90.80
76099;DHT22;64828;49.956;8.636;2024-03-17T01:27:00;3.90;90.80
76099;DHT22;64828;49.956;8.636;2024-03-17T01:27:16;3.80;90.70
76099;DHT22;64828;49.956;8.636;2024-03-17T01:27:32;3.90;90.70
76099;DHT22;64828;49.956;8.636;2024-03-17T01:27:48;3.90;90.70
76099;DHT22;64828;49.956;8.636;2024-03-17T01:28:04;3.80;90.70
76099;DHT22;64828;49.956;8.636;2024-03-17T01:28:20;3.80;90.60
76099;DHT22;64828;49.956;8.636;2024-03-17T01:28:36;3.80;90.60
76099;DHT22;64828;49.956;8.636;2024-03-17T01:28:52;3.80;90.60
76099;DHT22;64828;49.956;8.636;2024-03-17T01:29:07;3.80;90.70
76099;DHT22;64828;49.956;8.636;2024-03-17T01:29:24;3.80;90.80
76099;DHT22;64828;49.956;8.636;2024-03-17T01:29:40;3.80;90.80
76099;DHT22;64828;49.956;8.636;2024-03-17T01:29:56;3.80;90.80
76099;DHT22;64828;49.956;8.636;2024-03-17T01:30:12;3.80;90.70
76099;DHT22;64828;49.956;8.636;2024-03-17T01:30:28;3.80;90.70
76099;DHT22;64828;49.956;8.636;2024-03-17T01:30:43;3.80;90.70
76099;DHT22;64828;49.956;8.636;2024-03-17T01:30:59;3.80;90.70
76099;DHT22;64828;49.956;8.636;2024-03-17T01:31:15;3.80;90.70
76099;DHT22;64828;49.956;8.636;2024-03-17T01:31:30;3.80;90.70
76099;DHT22;64828;49.956;8.636;2024-03-17T01:31:46;3.70;90.60
76099;DHT22;64828;49.956;8.636;2024-03-17T01:32:02;3.80;90.60
76099;DHT22;64828;49.956;8.636;2024-03-17T01:32:18;3.80;90.60
76099;DHT22;64828;49.956;8.636;2024-03-17T01:32:35;3.80;90.60
76099;DHT22;64828;49.956;8.636;2024-03-17T01:32:51;3.80;90.60
76099;DHT22;64828;49.956;8.636;2024-03-17T01:33:07;3.70;90.60
76099;DHT22;64828;49.956;8.636;2024-03-17T01:33:23;3.80;90.60
76099;DHT22;64828;49.956;8.636;2024-03-17T01:33:39;3.70;90.60
76099;DHT22;64828;49.956;8.636;2024-03-17T01:33:55;3.70;90.60
76099;DHT22;64828;49.956;8.636;2024-03-17T01:34:11;3.70;90.70
76099;DHT22;64828;49.956;8.636;2024-03-17T01:34:27;3.70;90.70
76099;DHT22;64828;49.956;8.636;2024-03-17T01:34:42;3.70;90.80
76099;DHT22;64828;49.956;8.636;2024-03-17T01:34:58;3.70;90.80
76099;DHT22;64828;49.956;8.636;2024-03-17T01:35:13;3.70;90.80
76099;DHT22;64828;49.956;8.636;2024-03-17T01:35:29;3.70;90.80
76099;DHT22;64828;49.956;8.636;2024-03-17T01:35:45;3.70;90.80
76099;DHT22;64828;49.956;8.636;2024-03-17T01:36:01;3.70;90.80
76099;DHT22;64828;49.956;8.636;2024-03-17T01:36:16;3.70;90.90
76099;DHT22;64828;49.956;8.636;2024-03-17T01:36:32;3.70;90.80
76099;DHT22;64828;49.956;8.636;2024-03-17T01:36:48;3.60;90.80
76099;DHT22;64828;49.956;8.636;2024-03-17T01:37:04;3.60;90.90
76099;DHT22;64828;49.956;8.636;2024-03-17T01:37:20;3.60;90.80
76099;DHT22;64828;49.956;8.636;2024-03-17T01:37:35;3.60;90.80
76099;DHT22;64828;49.956;8.636;2024-03-17T01:37:51;3.60;90.80
76099;DHT22;64828;49.956;8.636;2024-03-17T01:38:07;3.60;90.80
76099;DHT22;64828;49.956;8.636;2024-03-17T01:38:25;3.60;90.80
76099;DHT22;64828;49.956;8.636;2024-03-17T01:38:41;3.50;90.90
76099;DHT22;64828;49.956;8.636;2024-03-17T01:38:56;3.50;90.90
76099;DHT22;64828;49.956;8.636;2024-03-17T01:39:12;3.50;91.00
76099;DHT22;64828;49.956;8.636;2024-03-17T01:39:28;3.50;91.00
76099;DHT22;64828;49.956;8.636;2024-03-17T01:39:43;3.50;91.00
76099;DHT22;64828;49.956;8.636;2024-03-17T01:39:59;3.50;91.00
76099;DHT22;64828;49.956;8.636;2024-03-17T01:40:15;3.50;91.00
76099;DHT22;64828;49.956;8.636;2024-03-17T01:40:30;3.50;91.00
76099;DHT22;64828;49.956;8.636;2024-03-17T01:40:46;3.50;91.10
76099;DHT22;64828;49.956;8.636;2024-03-17T01:41:02;3.40;91.10
76099;DHT22;64828;49.956;8.636;2024-03-17T01:41:19;3.50;91.10
76099;DHT22;64828;49.956;8.636;2024-03-17T01:41:35;3.40;91.20
76099;DHT22;64828;49.956;8.636;2024-03-17T01:41:51;3.40;91.20
76099;DHT22;64828;49.956;8.636;2024-03-17T01:42:07;3.40;91.20
76099;DHT22;64828;49.956;8.636;2024-03-17T01:42:23;3.40;91.30
76099;DHT22;64828;49.956;8.636;2024-03-17T01:42:40;3.40;91.30
76099;DHT22;64828;49.956;8.636;2024-03-17T01:42:57;3.40;91.40
76099;DHT22;64828;49.956;8.636;2024-03-17T01:43:12;3.40;91.50
76099;DHT22;64828;49.956;8.636;2024-03-17T01:43:28;3.40;91.50
76099;DHT22;64828;49.956;8.636;2024-03-17T01:43:44;3.40;91.50
76099;DHT22;64828;49.956;8.636;2024-03-17T01:43:59;3.40;91.50